Observations
| Time | Sensor | AQI | SAQ | Temp °C | Hum % | Pres Pa | CO μg/m³ | H₂S μg/m³ | NO μg/m³ | NO₂ μg/m³ | O₃ μg/m³ | SO₂ μg/m³ | CO₂e PPM | VOC PPM | PM1 μg/m³ | PM2.5 μg/m³ | PM4 μg/m³ | PM10 μg/m³ | TPS µm |
|---|---|---|---|---|---|---|---|---|---|---|---|---|---|---|---|---|---|---|---|
| Thursday 13 August 2026 | |||||||||||||||||||
| 09:46 | Trim Market St | 2 | 27.4 | 58 | 57,593 | 0 | 3.09 | 0.68 | 14.88 | 75.41 | 0 | 2.14 | 3.64 | 4.73 | |||||
| 09:45 | Trim Patrick St | 1 | 28.2 | 55 | 73,198 | 0 | 0 | 0.95 | 12.57 | 58.04 | 12.57 | 3.71 | 8.36 | 9.2 | |||||
| 09:44 | Trim Patrick St | 1 | 28.2 | 55 | 73,243 | 0 | 0 | 0.96 | 13.03 | 58.03 | 12 | 4.57 | 9.12 | 10.04 | |||||
| 09:44 | Trim Market St | 2 | 27.3 | 57 | 57,642 | 0 | 1.38 | 0.64 | 13.67 | 80.95 | 0 | 2.14 | 4.67 | 6.12 | |||||
| 09:43 | Trim Patrick St | 1 | 28.2 | 55 | 73,330 | 0 | 0 | 0.92 | 13.15 | 54.69 | 12.45 | 3.71 | 9.12 | 10.04 | |||||
| 09:43 | Trim Market St | 2 | 27.3 | 57 | 57,669 | 0 | 1.57 | 0.62 | 13.39 | 81.76 | 0 | 2.14 | 3.68 | 6.12 | |||||
| 09:42 | Trim Patrick St | 1 | 28.2 | 55 | 73,424 | 0 | 0 | 0.84 | 12.81 | 57.83 | 11.79 | 5.43 | 9.88 | 10.86 | |||||
| 09:42 | Trim Market St | 2 | 27.4 | 56 | 57,698 | 0 | 0 | 0.61 | 13.34 | 78.15 | 0 | 2.14 | 5.21 | 6.82 | |||||
| 09:41 | Trim Patrick St | 1 | 28.2 | 55 | 73,544 | 0 | 0 | 0.77 | 12.41 | 57.37 | 12.12 | 4.57 | 9.12 | 10.04 | |||||
| 09:41 | Trim Market St | 2 | 27.4 | 56 | 57,713 | 0 | 0 | 0.6 | 13.27 | 58.53 | 0 | 2.14 | 4.72 | 6.11 | |||||
| 09:40 | Trim Patrick St | 1 | 28.2 | 55 | 73,624 | 0 | 0 | 0.7 | 11.86 | 60.82 | 12.75 | 4.57 | 9.12 | 10.03 | |||||
| 09:39 | Trim Patrick St | 1 | 28.3 | 55 | 73,628 | 0 | 0 | 0.59 | 8.65 | 61.03 | 12.36 | 5.43 | 9.88 | 10.87 | |||||
| 09:38 | Trim Patrick St | 1 | 28.3 | 55 | 73,508 | 0 | 0 | 0.56 | 6.75 | 64.17 | 13.02 | 4.57 | 9.12 | 10.03 | |||||
| 09:37 | Trim Patrick St | 1 | 28.2 | 55 | 73,257 | 0 | 1.61 | 0.65 | 1.53 | 69.16 | 11.99 | 4.57 | 9.86 | 10.85 | |||||
| 09:37 | Trim Market St | 2 | 27.7 | 55 | 57,725 | 0 | 0 | 0.65 | 11.65 | 56.95 | 0 | 1.43 | 3.76 | 4.67 | |||||
| 09:36 | Trim Patrick St | 1 | 28.1 | 55 | 72,797 | 0 | 11.35 | 0.68 | 13.4 | 57.2 | 12.9 | 4.57 | 9.08 | 9.99 | |||||
| 09:35 | Trim Patrick St | 1 | 28.1 | 55 | 72,094 | 0 | 0 | 0.74 | 13.33 | 0 | 13.84 | 4.57 | 9.85 | 10.84 | |||||
| 09:34 | Trim Patrick St | 1 | 29 | 54 | 71,167 | 0 | 0 | 0.88 | 10.29 | 44.94 | 11.84 | 3.71 | 8.44 | 9.28 | |||||
| 09:33 | Trim Patrick St | 1 | 29 | 53 | 71,144 | 0 | 0 | 1.02 | 9.04 | 39.22 | 12 | 3.71 | 8.47 | 9.32 | |||||
| 09:32 | Trim Market St | 2 | 28.2 | 54 | 57,618 | 0 | 0 | 0.64 | 11.01 | 56.52 | 0 | 2.14 | 3.81 | 6.08 | |||||